sensor_id;sensor_type;location;lat;lon;timestamp;P1;durP1;ratioP1;P2;durP2;ratioP2
72895;SDS011;61036;53.224;6.554;2023-08-12T00:00:56;8.27;;;4.00;;
72895;SDS011;61036;53.224;6.554;2023-08-12T00:03:22;8.07;;;3.83;;
72895;SDS011;61036;53.224;6.554;2023-08-12T00:05:47;7.67;;;4.17;;
72895;SDS011;61036;53.224;6.554;2023-08-12T00:08:13;8.43;;;3.97;;
72895;SDS011;61036;53.224;6.554;2023-08-12T00:10:38;6.70;;;3.77;;
72895;SDS011;61036;53.224;6.554;2023-08-12T00:13:04;9.00;;;4.13;;
72895;SDS011;61036;53.224;6.554;2023-08-12T00:15:29;6.13;;;3.33;;
72895;SDS011;61036;53.224;6.554;2023-08-12T00:17:55;7.00;;;3.77;;
72895;SDS011;61036;53.224;6.554;2023-08-12T00:20:21;7.50;;;3.80;;
72895;SDS011;61036;53.224;6.554;2023-08-12T00:22:46;7.60;;;3.53;;
72895;SDS011;61036;53.224;6.554;2023-08-12T00:25:12;8.03;;;3.77;;
72895;SDS011;61036;53.224;6.554;2023-08-12T00:27:37;7.83;;;3.90;;
72895;SDS011;61036;53.224;6.554;2023-08-12T00:30:04;8.67;;;4.07;;
72895;SDS011;61036;53.224;6.554;2023-08-12T00:32:30;5.47;;;2.90;;
72895;SDS011;61036;53.224;6.554;2023-08-12T00:34:56;6.60;;;3.17;;
72895;SDS011;61036;53.224;6.554;2023-08-12T00:37:21;5.77;;;3.33;;
72895;SDS011;61036;53.224;6.554;2023-08-12T00:39:47;6.33;;;3.10;;
72895;SDS011;61036;53.224;6.554;2023-08-12T00:42:12;8.83;;;3.70;;
72895;SDS011;61036;53.224;6.554;2023-08-12T00:44:38;7.73;;;3.10;;
72895;SDS011;61036;53.224;6.554;2023-08-12T00:47:04;6.67;;;3.27;;
72895;SDS011;61036;53.224;6.554;2023-08-12T00:49:29;7.57;;;3.50;;
72895;SDS011;61036;53.224;6.554;2023-08-12T00:51:57;7.60;;;3.50;;
72895;SDS011;61036;53.224;6.554;2023-08-12T00:54:25;5.43;;;3.10;;
72895;SDS011;61036;53.224;6.554;2023-08-12T00:56:51;5.23;;;3.00;;
72895;SDS011;61036;53.224;6.554;2023-08-12T00:59:18;6.33;;;3.23;;
72895;SDS011;61036;53.224;6.554;2023-08-12T01:01:44;7.07;;;2.73;;
72895;SDS011;61036;53.224;6.554;2023-08-12T01:04:11;6.67;;;2.80;;
72895;SDS011;61036;53.224;6.554;2023-08-12T01:06:36;7.13;;;3.00;;
72895;SDS011;61036;53.224;6.554;2023-08-12T01:09:04;5.90;;;2.57;;
72895;SDS011;61036;53.224;6.554;2023-08-12T01:17:26;5.17;;;2.90;;
72895;SDS011;61036;53.224;6.554;2023-08-12T01:19:54;7.33;;;2.77;;
72895;SDS011;61036;53.224;6.554;2023-08-12T01:22:21;6.03;;;3.07;;
72895;SDS011;61036;53.224;6.554;2023-08-12T01:24:48;6.00;;;2.77;;
72895;SDS011;61036;53.224;6.554;2023-08-12T01:27:16;5.40;;;3.20;;
72895;SDS011;61036;53.224;6.554;2023-08-12T01:29:42;6.13;;;2.73;;
72895;SDS011;61036;53.224;6.554;2023-08-12T01:37:28;6.87;;;3.27;;
72895;SDS011;61036;53.224;6.554;2023-08-12T01:39:54;8.70;;;3.43;;
72895;SDS011;61036;53.224;6.554;2023-08-12T01:42:21;8.00;;;3.10;;
72895;SDS011;61036;53.224;6.554;2023-08-12T01:44:48;6.57;;;3.33;;
72895;SDS011;61036;53.224;6.554;2023-08-12T01:47:14;8.53;;;3.80;;
72895;SDS011;61036;53.224;6.554;2023-08-12T01:49:40;7.07;;;3.67;;
72895;SDS011;61036;53.224;6.554;2023-08-12T01:52:05;7.97;;;4.23;;
72895;SDS011;61036;53.224;6.554;2023-08-12T01:54:31;5.57;;;3.30;;
72895;SDS011;61036;53.224;6.554;2023-08-12T01:57:02;9.83;;;3.53;;
72895;SDS011;61036;53.224;6.554;2023-08-12T01:59:39;8.17;;;4.10;;
72895;SDS011;61036;53.224;6.554;2023-08-12T02:02:05;6.53;;;4.00;;
72895;SDS011;61036;53.224;6.554;2023-08-12T02:04:31;9.97;;;4.30;;
72895;SDS011;61036;53.224;6.554;2023-08-12T02:06:56;8.57;;;3.87;;
72895;SDS011;61036;53.224;6.554;2023-08-12T02:09:22;9.80;;;4.67;;
72895;SDS011;61036;53.224;6.554;2023-08-12T02:11:48;8.57;;;3.77;;
72895;SDS011;61036;53.224;6.554;2023-08-12T02:14:14;8.60;;;4.17;;
72895;SDS011;61036;53.224;6.554;2023-08-12T02:16:40;8.10;;;4.83;;
72895;SDS011;61036;53.224;6.554;2023-08-12T02:19:05;7.93;;;4.20;;
72895;SDS011;61036;53.224;6.554;2023-08-12T02:21:31;9.77;;;4.80;;
72895;SDS011;61036;53.224;6.554;2023-08-12T02:23:56;7.57;;;4.50;;
72895;SDS011;61036;53.224;6.554;2023-08-12T02:26:22;8.00;;;4.73;;
72895;SDS011;61036;53.224;6.554;2023-08-12T02:28:48;7.63;;;4.10;;
72895;SDS011;61036;53.224;6.554;2023-08-12T02:31:15;9.13;;;4.97;;
72895;SDS011;61036;53.224;6.554;2023-08-12T02:33:41;7.20;;;4.53;;
72895;SDS011;61036;53.224;6.554;2023-08-12T02:36:07;8.63;;;4.37;;
72895;SDS011;61036;53.224;6.554;2023-08-12T02:38:33;8.70;;;4.73;;
72895;SDS011;61036;53.224;6.554;2023-08-12T02:40:58;10.17;;;5.03;;
72895;SDS011;61036;53.224;6.554;2023-08-12T02:43:24;9.40;;;5.37;;
72895;SDS011;61036;53.224;6.554;2023-08-12T02:45:49;9.87;;;5.30;;
72895;SDS011;61036;53.224;6.554;2023-08-12T02:48:15;8.10;;;4.93;;
72895;SDS011;61036;53.224;6.554;2023-08-12T02:50:40;10.03;;;5.73;;
72895;SDS011;61036;53.224;6.554;2023-08-12T02:53:06;10.03;;;5.60;;
72895;SDS011;61036;53.224;6.554;2023-08-12T02:55:32;10.30;;;5.17;;
72895;SDS011;61036;53.224;6.554;2023-08-12T02:57:58;8.40;;;4.80;;
72895;SDS011;61036;53.224;6.554;2023-08-12T03:00:24;9.10;;;6.10;;
72895;SDS011;61036;53.224;6.554;2023-08-12T03:02:49;8.93;;;5.20;;
72895;SDS011;61036;53.224;6.554;2023-08-12T03:05:18;14.50;;;6.07;;
72895;SDS011;61036;53.224;6.554;2023-08-12T03:07:44;8.67;;;5.50;;
72895;SDS011;61036;53.224;6.554;2023-08-12T03:10:09;9.30;;;5.73;;
72895;SDS011;61036;53.224;6.554;2023-08-12T03:12:35;9.40;;;5.73;;
72895;SDS011;61036;53.224;6.554;2023-08-12T03:15:01;7.57;;;4.50;;
72895;SDS011;61036;53.224;6.554;2023-08-12T03:17:27;10.73;;;6.33;;
72895;SDS011;61036;53.224;6.554;2023-08-12T03:19:53;8.37;;;5.30;;
72895;SDS011;61036;53.224;6.554;2023-08-12T03:22:21;9.90;;;5.50;;
72895;SDS011;61036;53.224;6.554;2023-08-12T03:24:47;9.37;;;5.70;;
72895;SDS011;61036;53.224;6.554;2023-08-12T03:27:14;11.13;;;6.03;;
72895;SDS011;61036;53.224;6.554;2023-08-12T03:29:41;10.03;;;6.30;;
72895;SDS011;61036;53.224;6.554;2023-08-12T03:32:07;9.80;;;6.07;;
72895;SDS011;61036;53.224;6.554;2023-08-12T03:34:33;9.53;;;5.80;;
72895;SDS011;61036;53.224;6.554;2023-08-12T03:36:59;11.77;;;6.30;;
72895;SDS011;61036;53.224;6.554;2023-08-12T03:39:24;8.87;;;6.47;;
72895;SDS011;61036;53.224;6.554;2023-08-12T03:41:51;11.60;;;7.13;;
72895;SDS011;61036;53.224;6.554;2023-08-12T03:44:16;10.10;;;6.30;;
72895;SDS011;61036;53.224;6.554;2023-08-12T03:46:42;11.07;;;6.60;;
72895;SDS011;61036;53.224;6.554;2023-08-12T03:49:08;12.33;;;7.23;;
72895;SDS011;61036;53.224;6.554;2023-08-12T03:51:34;10.23;;;7.00;;
72895;SDS011;61036;53.224;6.554;2023-08-12T03:53:59;13.40;;;7.57;;
72895;SDS011;61036;53.224;6.554;2023-08-12T03:56:26;12.67;;;7.27;;
72895;SDS011;61036;53.224;6.554;2023-08-12T03:58:51;9.73;;;6.43;;
72895;SDS011;61036;53.224;6.554;2023-08-12T04:01:17;11.97;;;7.90;;
72895;SDS011;61036;53.224;6.554;2023-08-12T04:03:43;12.47;;;6.70;;
72895;SDS011;61036;53.224;6.554;2023-08-12T04:06:08;9.07;;;6.10;;
72895;SDS011;61036;53.224;6.554;2023-08-12T04:08:34;10.33;;;6.57;;
72895;SDS011;61036;53.224;6.554;2023-08-12T04:10:59;10.67;;;6.57;;
72895;SDS011;61036;53.224;6.554;2023-08-12T04:13:25;11.33;;;6.90;;
72895;SDS011;61036;53.224;6.554;2023-08-12T04:15:51;9.40;;;6.50;;
72895;SDS011;61036;53.224;6.554;2023-08-12T04:18:18;13.10;;;7.60;;
72895;SDS011;61036;53.224;6.554;2023-08-12T04:20:50;10.43;;;7.13;;
72895;SDS011;61036;53.224;6.554;2023-08-12T04:23:17;13.80;;;7.77;;
72895;SDS011;61036;53.224;6.554;2023-08-12T04:25:43;13.03;;;8.07;;
72895;SDS011;61036;53.224;6.554;2023-08-12T04:28:12;11.17;;;7.17;;
72895;SDS011;61036;53.224;6.554;2023-08-12T04:30:44;11.40;;;7.27;;
72895;SDS011;61036;53.224;6.554;2023-08-12T04:33:13;11.43;;;7.17;;
72895;SDS011;61036;53.224;6.554;2023-08-12T04:35:42;12.90;;;8.17;;
72895;SDS011;61036;53.224;6.554;2023-08-12T04:38:09;10.60;;;7.50;;
72895;SDS011;61036;53.224;6.554;2023-08-12T04:40:39;12.70;;;7.77;;
72895;SDS011;61036;53.224;6.554;2023-08-12T04:43:06;12.73;;;8.00;;
72895;SDS011;61036;53.224;6.554;2023-08-12T04:45:32;16.00;;;8.50;;
72895;SDS011;61036;53.224;6.554;2023-08-12T04:47:58;11.17;;;7.77;;
72895;SDS011;61036;53.224;6.554;2023-08-12T04:50:25;14.07;;;8.30;;
72895;SDS011;61036;53.224;6.554;2023-08-12T04:52:50;11.80;;;7.87;;
72895;SDS011;61036;53.224;6.554;2023-08-12T04:55:17;15.20;;;8.33;;
72895;SDS011;61036;53.224;6.554;2023-08-12T04:57:43;11.07;;;7.43;;
72895;SDS011;61036;53.224;6.554;2023-08-12T05:00:09;13.67;;;6.87;;
72895;SDS011;61036;53.224;6.554;2023-08-12T05:02:35;12.67;;;7.60;;
72895;SDS011;61036;53.224;6.554;2023-08-12T05:05:01;12.50;;;7.67;;
72895;SDS011;61036;53.224;6.554;2023-08-12T05:07:27;9.87;;;6.80;;
72895;SDS011;61036;53.224;6.554;2023-08-12T05:09:53;12.40;;;6.17;;
72895;SDS011;61036;53.224;6.554;2023-08-12T05:12:18;11.50;;;6.63;;
72895;SDS011;61036;53.224;6.554;2023-08-12T05:14:44;10.87;;;6.03;;
72895;SDS011;61036;53.224;6.554;2023-08-12T05:17:10;10.90;;;6.27;;
72895;SDS011;61036;53.224;6.554;2023-08-12T05:19:36;10.00;;;5.47;;
72895;SDS011;61036;53.224;6.554;2023-08-12T05:22:02;10.83;;;5.87;;
72895;SDS011;61036;53.224;6.554;2023-08-12T05:24:28;9.83;;;5.63;;
72895;SDS011;61036;53.224;6.554;2023-08-12T05:26:53;10.87;;;5.93;;
72895;SDS011;61036;53.224;6.554;2023-08-12T05:29:19;10.50;;;6.40;;
72895;SDS011;61036;53.224;6.554;2023-08-12T05:31:44;10.33;;;6.00;;
72895;SDS011;61036;53.224;6.554;2023-08-12T05:34:09;10.77;;;6.37;;
72895;SDS011;61036;53.224;6.554;2023-08-12T05:36:35;9.77;;;6.03;;
72895;SDS011;61036;53.224;6.554;2023-08-12T05:39:01;11.80;;;6.20;;
72895;SDS011;61036;53.224;6.554;2023-08-12T05:41:26;10.63;;;6.50;;
72895;SDS011;61036;53.224;6.554;2023-08-12T05:43:52;10.83;;;6.53;;
72895;SDS011;61036;53.224;6.554;2023-08-12T05:46:17;8.77;;;5.80;;
72895;SDS011;61036;53.224;6.554;2023-08-12T05:48:43;9.13;;;5.17;;
72895;SDS011;61036;53.224;6.554;2023-08-12T05:51:08;10.00;;;5.87;;
72895;SDS011;61036;53.224;6.554;2023-08-12T05:53:34;11.43;;;6.93;;
72895;SDS011;61036;53.224;6.554;2023-08-12T05:56:00;8.60;;;5.33;;
72895;SDS011;61036;53.224;6.554;2023-08-12T05:58:25;10.43;;;6.33;;
72895;SDS011;61036;53.224;6.554;2023-08-12T06:00:51;10.77;;;6.60;;
72895;SDS011;61036;53.224;6.554;2023-08-12T06:03:16;9.13;;;6.27;;
72895;SDS011;61036;53.224;6.554;2023-08-12T06:05:45;11.33;;;6.83;;
72895;SDS011;61036;53.224;6.554;2023-08-12T06:08:11;14.03;;;7.27;;
72895;SDS011;61036;53.224;6.554;2023-08-12T06:10:37;13.50;;;8.30;;
72895;SDS011;61036;53.224;6.554;2023-08-12T06:13:03;12.77;;;6.87;;
72895;SDS011;61036;53.224;6.554;2023-08-12T06:15:29;9.37;;;5.90;;
72895;SDS011;61036;53.224;6.554;2023-08-12T06:17:55;9.63;;;6.30;;
72895;SDS011;61036;53.224;6.554;2023-08-12T06:20:20;12.07;;;7.23;;
72895;SDS011;61036;53.224;6.554;2023-08-12T06:22:46;9.73;;;6.17;;
72895;SDS011;61036;53.224;6.554;2023-08-12T06:25:11;11.40;;;6.80;;
72895;SDS011;61036;53.224;6.554;2023-08-12T06:27:37;10.37;;;6.67;;
72895;SDS011;61036;53.224;6.554;2023-08-12T06:30:03;12.93;;;7.47;;
72895;SDS011;61036;53.224;6.554;2023-08-12T06:32:29;10.33;;;7.30;;
72895;SDS011;61036;53.224;6.554;2023-08-12T06:34:54;11.47;;;7.10;;
72895;SDS011;61036;53.224;6.554;2023-08-12T06:37:20;9.53;;;6.93;;
72895;SDS011;61036;53.224;6.554;2023-08-12T06:39:45;10.73;;;7.67;;
72895;SDS011;61036;53.224;6.554;2023-08-12T06:42:11;11.63;;;8.33;;
72895;SDS011;61036;53.224;6.554;2023-08-12T06:44:37;11.70;;;7.63;;
72895;SDS011;61036;53.224;6.554;2023-08-12T06:47:03;13.00;;;7.47;;
72895;SDS011;61036;53.224;6.554;2023-08-12T06:49:28;11.57;;;7.37;;
72895;SDS011;61036;53.224;6.554;2023-08-12T06:51:54;12.83;;;8.57;;
72895;SDS011;61036;53.224;6.554;2023-08-12T06:54:19;16.50;;;9.27;;
72895;SDS011;61036;53.224;6.554;2023-08-12T06:56:48;14.33;;;7.73;;
72895;SDS011;61036;53.224;6.554;2023-08-12T06:59:13;13.43;;;8.70;;
72895;SDS011;61036;53.224;6.554;2023-08-12T07:01:39;11.10;;;7.20;;
72895;SDS011;61036;53.224;6.554;2023-08-12T07:04:04;12.03;;;7.80;;
72895;SDS011;61036;53.224;6.554;2023-08-12T07:06:30;11.53;;;7.80;;
72895;SDS011;61036;53.224;6.554;2023-08-12T07:08:56;14.73;;;8.67;;
72895;SDS011;61036;53.224;6.554;2023-08-12T07:11:21;13.30;;;7.80;;
72895;SDS011;61036;53.224;6.554;2023-08-12T07:13:47;15.97;;;9.57;;
72895;SDS011;61036;53.224;6.554;2023-08-12T07:16:12;17.20;;;9.70;;
72895;SDS011;61036;53.224;6.554;2023-08-12T07:18:38;14.27;;;8.97;;
72895;SDS011;61036;53.224;6.554;2023-08-12T07:21:04;15.77;;;9.80;;
72895;SDS011;61036;53.224;6.554;2023-08-12T07:23:29;17.87;;;10.93;;
72895;SDS011;61036;53.224;6.554;2023-08-12T07:25:55;12.40;;;8.70;;
72895;SDS011;61036;53.224;6.554;2023-08-12T07:28:20;15.83;;;10.40;;
72895;SDS011;61036;53.224;6.554;2023-08-12T07:30:47;18.30;;;11.33;;
72895;SDS011;61036;53.224;6.554;2023-08-12T07:33:13;16.10;;;10.27;;
72895;SDS011;61036;53.224;6.554;2023-08-12T07:35:39;18.17;;;11.00;;
72895;SDS011;61036;53.224;6.554;2023-08-12T07:38:04;15.13;;;10.70;;
72895;SDS011;61036;53.224;6.554;2023-08-12T07:40:30;16.93;;;10.23;;
72895;SDS011;61036;53.224;6.554;2023-08-12T07:42:55;13.83;;;9.47;;
72895;SDS011;61036;53.224;6.554;2023-08-12T07:45:21;13.30;;;9.33;;
72895;SDS011;61036;53.224;6.554;2023-08-12T07:47:46;16.63;;;10.70;;
72895;SDS011;61036;53.224;6.554;2023-08-12T07:50:12;14.53;;;10.30;;
72895;SDS011;61036;53.224;6.554;2023-08-12T07:52:37;17.33;;;11.27;;
72895;SDS011;61036;53.224;6.554;2023-08-12T07:55:03;19.87;;;11.80;;
72895;SDS011;61036;53.224;6.554;2023-08-12T07:57:29;18.90;;;11.20;;
72895;SDS011;61036;53.224;6.554;2023-08-12T07:59:54;17.10;;;10.40;;
72895;SDS011;61036;53.224;6.554;2023-08-12T08:02:20;17.00;;;11.13;;
72895;SDS011;61036;53.224;6.554;2023-08-12T08:04:45;16.73;;;11.33;;
72895;SDS011;61036;53.224;6.554;2023-08-12T08:07:14;15.43;;;11.23;;
72895;SDS011;61036;53.224;6.554;2023-08-12T08:09:41;15.83;;;11.03;;
72895;SDS011;61036;53.224;6.554;2023-08-12T08:12:07;20.13;;;12.87;;
72895;SDS011;61036;53.224;6.554;2023-08-12T08:14:33;20.23;;;12.33;;
72895;SDS011;61036;53.224;6.554;2023-08-12T08:16:59;17.77;;;11.53;;
72895;SDS011;61036;53.224;6.554;2023-08-12T08:19:24;20.60;;;13.53;;
72895;SDS011;61036;53.224;6.554;2023-08-12T08:21:50;16.73;;;11.67;;
72895;SDS011;61036;53.224;6.554;2023-08-12T08:24:15;17.07;;;12.10;;
72895;SDS011;61036;53.224;6.554;2023-08-12T08:26:41;20.03;;;13.10;;
72895;SDS011;61036;53.224;6.554;2023-08-12T08:29:06;18.03;;;12.17;;
72895;SDS011;61036;53.224;6.554;2023-08-12T08:31:32;19.60;;;12.37;;
72895;SDS011;61036;53.224;6.554;2023-08-12T08:33:58;16.93;;;11.03;;
72895;SDS011;61036;53.224;6.554;2023-08-12T08:36:23;18.57;;;12.67;;
72895;SDS011;61036;53.224;6.554;2023-08-12T08:38:49;20.67;;;13.33;;
72895;SDS011;61036;53.224;6.554;2023-08-12T08:41:16;16.83;;;12.23;;
72895;SDS011;61036;53.224;6.554;2023-08-12T08:43:42;16.77;;;12.10;;
72895;SDS011;61036;53.224;6.554;2023-08-12T08:46:14;17.73;;;13.00;;
72895;SDS011;61036;53.224;6.554;2023-08-12T08:48:44;16.97;;;11.03;;
72895;SDS011;61036;53.224;6.554;2023-08-12T08:51:10;17.93;;;13.40;;
72895;SDS011;61036;53.224;6.554;2023-08-12T08:53:39;25.83;;;13.63;;
72895;SDS011;61036;53.224;6.554;2023-08-12T08:56:07;19.87;;;13.20;;
72895;SDS011;61036;53.224;6.554;2023-08-12T08:58:33;19.13;;;13.23;;
72895;SDS011;61036;53.224;6.554;2023-08-12T09:00:59;21.43;;;13.63;;
72895;SDS011;61036;53.224;6.554;2023-08-12T09:03:26;21.57;;;14.27;;
72895;SDS011;61036;53.224;6.554;2023-08-12T09:05:52;19.23;;;13.77;;
72895;SDS011;61036;53.224;6.554;2023-08-12T09:08:20;19.60;;;12.10;;
72895;SDS011;61036;53.224;6.554;2023-08-12T09:10:47;24.00;;;14.37;;
72895;SDS011;61036;53.224;6.554;2023-08-12T09:13:13;17.63;;;12.73;;
72895;SDS011;61036;53.224;6.554;2023-08-12T09:15:40;19.50;;;14.27;;
72895;SDS011;61036;53.224;6.554;2023-08-12T09:18:06;23.80;;;14.63;;
72895;SDS011;61036;53.224;6.554;2023-08-12T09:20:32;19.20;;;14.67;;
72895;SDS011;61036;53.224;6.554;2023-08-12T09:23:02;20.13;;;14.33;;
72895;SDS011;61036;53.224;6.554;2023-08-12T09:25:28;18.13;;;12.47;;
72895;SDS011;61036;53.224;6.554;2023-08-12T09:27:55;18.80;;;12.93;;
72895;SDS011;61036;53.224;6.554;2023-08-12T09:30:23;20.97;;;15.23;;
72895;SDS011;61036;53.224;6.554;2023-08-12T09:32:59;22.10;;;13.53;;
72895;SDS011;61036;53.224;6.554;2023-08-12T09:35:31;21.73;;;13.10;;
72895;SDS011;61036;53.224;6.554;2023-08-12T09:38:02;20.57;;;15.70;;
72895;SDS011;61036;53.224;6.554;2023-08-12T09:40:30;17.77;;;13.23;;
72895;SDS011;61036;53.224;6.554;2023-08-12T09:42:57;16.67;;;13.63;;
72895;SDS011;61036;53.224;6.554;2023-08-12T09:45:23;20.37;;;14.87;;
72895;SDS011;61036;53.224;6.554;2023-08-12T09:47:50;18.37;;;13.07;;
72895;SDS011;61036;53.224;6.554;2023-08-12T09:50:16;20.97;;;14.47;;
72895;SDS011;61036;53.224;6.554;2023-08-12T09:52:41;18.90;;;14.40;;
72895;SDS011;61036;53.224;6.554;2023-08-12T09:55:07;20.63;;;15.57;;
72895;SDS011;61036;53.224;6.554;2023-08-12T09:57:36;22.13;;;16.07;;
72895;SDS011;61036;53.224;6.554;2023-08-12T10:00:07;22.27;;;14.83;;
72895;SDS011;61036;53.224;6.554;2023-08-12T10:02:39;19.10;;;15.47;;
72895;SDS011;61036;53.224;6.554;2023-08-12T10:05:06;22.33;;;16.07;;
72895;SDS011;61036;53.224;6.554;2023-08-12T10:07:36;22.10;;;16.77;;
72895;SDS011;61036;53.224;6.554;2023-08-12T10:10:02;22.43;;;15.23;;
72895;SDS011;61036;53.224;6.554;2023-08-12T10:12:30;23.97;;;15.50;;
72895;SDS011;61036;53.224;6.554;2023-08-12T10:14:57;20.83;;;16.60;;
72895;SDS011;61036;53.224;6.554;2023-08-12T10:17:23;18.00;;;13.53;;
72895;SDS011;61036;53.224;6.554;2023-08-12T10:19:54;20.30;;;15.93;;
72895;SDS011;61036;53.224;6.554;2023-08-12T10:22:21;18.47;;;15.23;;
72895;SDS011;61036;53.224;6.554;2023-08-12T10:24:47;20.47;;;14.60;;
72895;SDS011;61036;53.224;6.554;2023-08-12T10:27:14;21.60;;;15.43;;
72895;SDS011;61036;53.224;6.554;2023-08-12T10:29:45;18.23;;;14.77;;
72895;SDS011;61036;53.224;6.554;2023-08-12T10:32:12;18.37;;;14.03;;
72895;SDS011;61036;53.224;6.554;2023-08-12T10:34:38;16.83;;;12.97;;
72895;SDS011;61036;53.224;6.554;2023-08-12T10:37:04;19.90;;;15.57;;
72895;SDS011;61036;53.224;6.554;2023-08-12T10:39:33;16.80;;;12.60;;
72895;SDS011;61036;53.224;6.554;2023-08-12T10:41:58;14.63;;;11.53;;
72895;SDS011;61036;53.224;6.554;2023-08-12T10:44:38;15.83;;;11.20;;
72895;SDS011;61036;53.224;6.554;2023-08-12T10:47:07;13.10;;;10.97;;
72895;SDS011;61036;53.224;6.554;2023-08-12T10:49:38;16.07;;;10.90;;
72895;SDS011;61036;53.224;6.554;2023-08-12T10:52:07;11.67;;;8.03;;
72895;SDS011;61036;53.224;6.554;2023-08-12T10:54:52;10.50;;;6.57;;
72895;SDS011;61036;53.224;6.554;2023-08-12T10:57:17;11.50;;;5.87;;
72895;SDS011;61036;53.224;6.554;2023-08-12T11:02:27;9.53;;;5.13;;
72895;SDS011;61036;53.224;6.554;2023-08-12T11:04:55;10.40;;;4.90;;
72895;SDS011;61036;53.224;6.554;2023-08-12T11:12:39;9.80;;;6.67;;
72895;SDS011;61036;53.224;6.554;2023-08-12T11:15:06;21.37;;;14.77;;
72895;SDS011;61036;53.224;6.554;2023-08-12T11:17:33;6.40;;;3.67;;
72895;SDS011;61036;53.224;6.554;2023-08-12T11:20:00;6.90;;;4.17;;
72895;SDS011;61036;53.224;6.554;2023-08-12T11:22:26;6.10;;;3.37;;
72895;SDS011;61036;53.224;6.554;2023-08-12T11:24:52;4.93;;;3.07;;
72895;SDS011;61036;53.224;6.554;2023-08-12T11:27:18;5.57;;;3.20;;
72895;SDS011;61036;53.224;6.554;2023-08-12T11:29:44;7.33;;;3.87;;
72895;SDS011;61036;53.224;6.554;2023-08-12T11:32:09;6.53;;;3.53;;
72895;SDS011;61036;53.224;6.554;2023-08-12T11:34:35;7.37;;;3.87;;
72895;SDS011;61036;53.224;6.554;2023-08-12T11:37:02;6.80;;;3.60;;
72895;SDS011;61036;53.224;6.554;2023-08-12T11:39:28;7.10;;;3.60;;
72895;SDS011;61036;53.224;6.554;2023-08-12T11:41:54;6.07;;;3.63;;
72895;SDS011;61036;53.224;6.554;2023-08-12T11:44:22;5.90;;;3.20;;
72895;SDS011;61036;53.224;6.554;2023-08-12T11:46:48;4.83;;;2.70;;
72895;SDS011;61036;53.224;6.554;2023-08-12T11:49:17;5.50;;;2.70;;
72895;SDS011;61036;53.224;6.554;2023-08-12T11:51:43;8.13;;;3.30;;
72895;SDS011;61036;53.224;6.554;2023-08-12T11:54:12;4.80;;;2.10;;
72895;SDS011;61036;53.224;6.554;2023-08-12T11:56:38;3.37;;;1.80;;
72895;SDS011;61036;53.224;6.554;2023-08-12T11:59:03;5.17;;;2.33;;
72895;SDS011;61036;53.224;6.554;2023-08-12T12:01:31;7.33;;;3.27;;
72895;SDS011;61036;53.224;6.554;2023-08-12T12:03:59;6.77;;;3.10;;
72895;SDS011;61036;53.224;6.554;2023-08-12T12:06:31;6.10;;;3.23;;
72895;SDS011;61036;53.224;6.554;2023-08-12T12:09:05;8.00;;;3.00;;
72895;SDS011;61036;53.224;6.554;2023-08-12T12:11:38;7.07;;;3.10;;
72895;SDS011;61036;53.224;6.554;2023-08-12T12:14:04;4.90;;;2.57;;
72895;SDS011;61036;53.224;6.554;2023-08-12T12:16:44;7.20;;;2.90;;
72895;SDS011;61036;53.224;6.554;2023-08-12T12:19:18;5.00;;;2.43;;
72895;SDS011;61036;53.224;6.554;2023-08-12T12:21:49;6.40;;;2.67;;
72895;SDS011;61036;53.224;6.554;2023-08-12T12:24:18;7.97;;;2.90;;
72895;SDS011;61036;53.224;6.554;2023-08-12T12:26:45;7.37;;;3.20;;
72895;SDS011;61036;53.224;6.554;2023-08-12T12:29:12;7.30;;;3.07;;
72895;SDS011;61036;53.224;6.554;2023-08-12T12:31:38;5.83;;;2.60;;
72895;SDS011;61036;53.224;6.554;2023-08-12T12:34:05;7.87;;;2.93;;
72895;SDS011;61036;53.224;6.554;2023-08-12T12:36:35;6.53;;;2.50;;
72895;SDS011;61036;53.224;6.554;2023-08-12T12:39:02;5.17;;;2.03;;
72895;SDS011;61036;53.224;6.554;2023-08-12T12:41:28;6.93;;;2.80;;
72895;SDS011;61036;53.224;6.554;2023-08-12T12:43:53;6.03;;;2.37;;
72895;SDS011;61036;53.224;6.554;2023-08-12T12:46:19;5.70;;;2.50;;
72895;SDS011;61036;53.224;6.554;2023-08-12T12:48:45;5.90;;;2.60;;
72895;SDS011;61036;53.224;6.554;2023-08-12T12:51:11;6.23;;;2.27;;
72895;SDS011;61036;53.224;6.554;2023-08-12T12:53:37;6.80;;;2.70;;
72895;SDS011;61036;53.224;6.554;2023-08-12T12:56:03;6.30;;;2.53;;
72895;SDS011;61036;53.224;6.554;2023-08-12T12:58:37;6.97;;;2.73;;
72895;SDS011;61036;53.224;6.554;2023-08-12T13:01:03;7.20;;;2.17;;
72895;SDS011;61036;53.224;6.554;2023-08-12T13:03:30;7.33;;;2.63;;
72895;SDS011;61036;53.224;6.554;2023-08-12T13:05:56;8.10;;;3.00;;
72895;SDS011;61036;53.224;6.554;2023-08-12T13:08:22;5.37;;;2.23;;
72895;SDS011;61036;53.224;6.554;2023-08-12T13:10:48;7.57;;;2.60;;
72895;SDS011;61036;53.224;6.554;2023-08-12T13:13:14;7.97;;;3.00;;
72895;SDS011;61036;53.224;6.554;2023-08-12T13:15:43;7.93;;;2.90;;
72895;SDS011;61036;53.224;6.554;2023-08-12T13:18:09;8.00;;;2.50;;
72895;SDS011;61036;53.224;6.554;2023-08-12T13:20:35;7.63;;;2.63;;
72895;SDS011;61036;53.224;6.554;2023-08-12T13:23:01;7.23;;;2.80;;
72895;SDS011;61036;53.224;6.554;2023-08-12T13:25:28;6.97;;;2.30;;
72895;SDS011;61036;53.224;6.554;2023-08-12T13:27:55;7.60;;;3.20;;
72895;SDS011;61036;53.224;6.554;2023-08-12T13:30:20;7.60;;;2.70;;
72895;SDS011;61036;53.224;6.554;2023-08-12T13:32:46;8.30;;;2.83;;
72895;SDS011;61036;53.224;6.554;2023-08-12T13:35:11;6.57;;;2.30;;
72895;SDS011;61036;53.224;6.554;2023-08-12T13:37:37;8.53;;;3.30;;
72895;SDS011;61036;53.224;6.554;2023-08-12T13:40:03;11.37;;;2.63;;
72895;SDS011;61036;53.224;6.554;2023-08-12T13:42:28;7.73;;;2.30;;
72895;SDS011;61036;53.224;6.554;2023-08-12T13:44:54;7.90;;;3.13;;
72895;SDS011;61036;53.224;6.554;2023-08-12T13:47:19;7.53;;;2.80;;
72895;SDS011;61036;53.224;6.554;2023-08-12T13:49:45;10.87;;;3.57;;
72895;SDS011;61036;53.224;6.554;2023-08-12T13:52:10;9.00;;;3.73;;
72895;SDS011;61036;53.224;6.554;2023-08-12T13:54:36;8.03;;;3.17;;
72895;SDS011;61036;53.224;6.554;2023-08-12T13:57:04;10.10;;;2.70;;
72895;SDS011;61036;53.224;6.554;2023-08-12T13:59:30;12.10;;;3.17;;
72895;SDS011;61036;53.224;6.554;2023-08-12T14:01:55;8.60;;;3.40;;
72895;SDS011;61036;53.224;6.554;2023-08-12T14:04:21;9.17;;;3.90;;
72895;SDS011;61036;53.224;6.554;2023-08-12T14:06:46;9.03;;;3.63;;
72895;SDS011;61036;53.224;6.554;2023-08-12T14:09:12;8.00;;;3.07;;
72895;SDS011;61036;53.224;6.554;2023-08-12T14:11:39;9.40;;;3.40;;
72895;SDS011;61036;53.224;6.554;2023-08-12T14:14:05;10.13;;;3.07;;
72895;SDS011;61036;53.224;6.554;2023-08-12T14:16:30;7.47;;;2.63;;
72895;SDS011;61036;53.224;6.554;2023-08-12T14:18:56;10.43;;;2.80;;
72895;SDS011;61036;53.224;6.554;2023-08-12T14:21:21;8.77;;;2.93;;
72895;SDS011;61036;53.224;6.554;2023-08-12T14:23:47;7.47;;;2.50;;
72895;SDS011;61036;53.224;6.554;2023-08-12T14:26:12;6.33;;;2.00;;
72895;SDS011;61036;53.224;6.554;2023-08-12T14:28:38;6.63;;;2.30;;
72895;SDS011;61036;53.224;6.554;2023-08-12T14:31:04;7.47;;;2.40;;
72895;SDS011;61036;53.224;6.554;2023-08-12T14:33:29;8.00;;;2.10;;
72895;SDS011;61036;53.224;6.554;2023-08-12T14:35:58;6.03;;;1.90;;
72895;SDS011;61036;53.224;6.554;2023-08-12T14:38:23;9.80;;;2.60;;
72895;SDS011;61036;53.224;6.554;2023-08-12T14:40:49;9.43;;;1.93;;
72895;SDS011;61036;53.224;6.554;2023-08-12T14:43:15;7.43;;;2.43;;
72895;SDS011;61036;53.224;6.554;2023-08-12T14:45:40;7.10;;;2.10;;
72895;SDS011;61036;53.224;6.554;2023-08-12T14:48:06;6.13;;;2.00;;
72895;SDS011;61036;53.224;6.554;2023-08-12T14:50:32;11.33;;;2.20;;
72895;SDS011;61036;53.224;6.554;2023-08-12T14:52:57;6.20;;;2.30;;